Time;durP1;ratioP1;P1;durP2;ratioP2;P2;SDS_P1;SDS_P2;PMS_P1;PMS_P2;Temp;Humidity;BMP_temperature;BMP_pressure;BME280_temperature;BME280_humidity;BME280_pressure;Samples;Min_cycle;Max_cycle;Signal;HPM_P1;HPM_P2
2022/12/26 00:01:40;;;;;;;16.08;10.50;;;10.50;99.90;;;;;;5043689;28;20025;-39
2022/12/26 00:04:06;;;;;;;11.77;9.05;;;10.50;99.90;;;;;;5042762;28;20029;-40
2022/12/26 00:06:32;;;;;;;14.30;10.10;;;10.50;99.90;;;;;;5044315;28;20032;-39
2022/12/26 00:09:00;;;;;;;14.23;10.10;;;10.50;99.90;;;;;;5044877;28;20037;-40
2022/12/26 00:11:26;;;;;;;13.82;9.98;;;10.50;99.90;;;;;;5043291;28;20025;-38
2022/12/26 00:14:01;;;;;;;15.27;10.35;;;10.50;99.90;;;;;;5043465;28;20075;-38
2022/12/26 00:16:27;;;;;;;15.77;10.13;;;10.50;99.90;;;;;;5043877;28;20041;-40
2022/12/26 00:18:53;;;;;;;15.48;9.95;;;10.50;99.90;;;;;;5043463;28;20029;-39
2022/12/26 00:21:20;;;;;;;15.55;10.65;;;10.50;99.90;;;;;;5042821;28;20436;-40
2022/12/26 00:23:46;;;;;;;19.00;9.73;;;10.50;99.90;;;;;;5044086;28;20060;-40
2022/12/26 00:26:14;;;;;;;15.20;10.45;;;10.50;99.90;;;;;;5041925;28;20396;-41
2022/12/26 00:28:40;;;;;;;16.30;10.68;;;10.50;99.90;;;;;;5043049;28;20021;-39
2022/12/26 00:31:27;;;;;;;17.50;11.27;;;10.50;99.90;;;;;;5042794;28;20472;-38
2022/12/26 00:33:52;;;;;;;17.92;11.48;;;10.50;99.90;;;;;;5042860;28;20049;-39
2022/12/26 00:36:21;;;;;;;21.33;12.27;;;10.50;99.90;;;;;;5042931;28;20028;-39
2022/12/26 00:38:47;;;;;;;18.75;11.43;;;10.50;99.90;;;;;;5042661;28;20507;-38
2022/12/26 00:41:14;;;;;;;17.52;11.30;;;10.50;99.90;;;;;;5042335;28;20373;-39
2022/12/26 00:43:40;;;;;;;17.80;10.85;;;10.50;99.90;;;;;;5043208;28;20063;-39
2022/12/26 00:46:07;;;;;;;19.88;11.45;;;10.50;99.90;;;;;;5042538;28;20028;-40
2022/12/26 00:48:33;;;;;;;17.95;11.52;;;10.50;99.90;;;;;;5039648;28;20033;-40
2022/12/26 00:50:58;;;;;;;20.45;12.55;;;10.50;99.90;;;;;;5043185;28;20894;-40
2022/12/26 00:53:25;;;;;;;21.80;13.52;;;10.50;99.90;;;;;;5042663;28;20021;-39
2022/12/26 00:55:51;;;;;;;20.70;12.95;;;10.50;99.90;;;;;;5043450;28;20503;-38
2022/12/26 00:58:17;;;;;;;20.67;13.45;;;10.50;99.90;;;;;;5042156;28;20029;-40
2022/12/26 01:00:43;;;;;;;19.75;12.50;;;10.50;99.90;;;;;;5042913;28;20042;-39
2022/12/26 01:03:09;;;;;;;18.38;11.85;;;10.50;99.90;;;;;;5042124;28;20551;-38
2022/12/26 01:05:39;;;;;;;17.27;11.57;;;10.50;99.90;;;;;;5042544;28;20036;-39
2022/12/26 01:08:04;;;;;;;18.15;12.65;;;10.50;99.90;;;;;;5041860;28;20047;-39
2022/12/26 01:10:30;;;;;;;18.17;12.77;;;10.50;99.90;;;;;;5043364;28;20040;-39
2022/12/26 01:12:55;;;;;;;18.05;12.13;;;10.50;99.90;;;;;;5043086;28;20017;-39
2022/12/26 01:15:21;;;;;;;18.92;13.13;;;10.50;99.90;;;;;;5042076;28;20037;-37
2022/12/26 01:17:52;;;;;;;19.50;13.43;;;10.50;99.90;;;;;;5043390;28;20029;-39
2022/12/26 01:20:18;;;;;;;16.85;12.27;;;10.50;99.90;;;;;;5042325;28;20029;-39
2022/12/26 01:22:44;;;;;;;17.20;12.80;;;10.50;99.90;;;;;;5041939;28;20024;-39
2022/12/26 01:25:10;;;;;;;18.77;13.63;;;10.50;99.90;;;;;;5041954;28;20511;-40
2022/12/26 01:27:36;;;;;;;19.60;14.05;;;10.60;99.90;;;;;;5041873;28;20473;-39
2022/12/26 01:30:01;;;;;;;18.73;13.85;;;10.60;99.90;;;;;;5041580;28;20029;-40
2022/12/26 01:32:27;;;;;;;18.20;13.23;;;10.60;99.90;;;;;;5042449;28;20757;-37
2022/12/26 01:34:54;;;;;;;18.15;13.10;;;10.60;99.90;;;;;;5040225;28;20059;-39
2022/12/26 01:37:21;;;;;;;19.67;13.60;;;10.60;99.90;;;;;;5041433;28;20108;-41
2022/12/26 01:39:47;;;;;;;19.20;13.52;;;10.60;99.90;;;;;;5041994;28;20087;-40
2022/12/26 01:42:18;;;;;;;16.02;12.38;;;10.60;99.90;;;;;;5041306;28;20750;-39
2022/12/26 01:44:59;;;;;;;16.58;12.35;;;10.60;99.90;;;;;;5041833;28;20036;-39
2022/12/26 01:47:50;;;;;;;16.30;12.00;;;10.50;99.90;;;;;;5022637;28;20029;-40
2022/12/26 01:50:52;;;;;;;17.45;12.70;;;10.60;99.90;;;;;;5039002;28;20103;-40
2022/12/26 01:53:24;;;;;;;16.17;12.10;;;10.60;99.90;;;;;;5041377;28;20033;-40
2022/12/26 01:56:05;;;;;;;16.27;12.50;;;10.50;99.90;;;;;;5038463;28;20025;-41
2022/12/26 01:58:36;;;;;;;13.88;10.93;;;10.50;99.90;;;;;;5041937;28;20050;-40
2022/12/26 02:01:05;;;;;;;15.27;12.00;;;10.50;99.90;;;;;;5037958;28;20079;-38
2022/12/26 02:06:16;;;;;;;16.83;13.20;;;10.50;99.90;;;;;;5041165;28;20163;-41
2022/12/26 02:08:43;;;;;;;15.48;11.75;;;10.50;99.90;;;;;;5041283;28;20091;-40
2022/12/26 02:11:20;;;;;;;14.65;11.20;;;10.50;99.90;;;;;;5039673;28;20396;-40
2022/12/26 02:13:45;;;;;;;14.63;12.02;;;10.50;99.90;;;;;;5041777;28;20078;-36
2022/12/26 02:16:13;;;;;;;14.27;11.80;;;10.50;99.90;;;;;;5040959;28;20029;-39
2022/12/26 02:18:39;;;;;;;15.43;12.02;;;10.40;99.90;;;;;;5040875;28;20025;-40
2022/12/26 02:21:23;;;;;;;14.80;12.30;;;10.50;99.90;;;;;;5040737;28;20449;-40
2022/12/26 02:24:01;;;;;;;15.75;12.85;;;10.50;99.90;;;;;;5040496;28;20028;-40
2022/12/26 02:27:05;;;;;;;16.02;12.07;;;10.40;99.90;;;;;;5039246;28;20166;-39
2022/12/26 02:29:47;;;;;;;16.13;12.95;;;10.40;99.90;;;;;;5041851;28;20037;-39
2022/12/26 02:32:52;;;;;;;14.70;12.35;;;10.40;99.90;;;;;;5038368;28;20029;-38
2022/12/26 02:35:35;;;;;;;15.85;12.98;;;10.40;99.90;;;;;;5040737;28;20765;-39
2022/12/26 02:38:27;;;;;;;13.95;11.45;;;10.40;99.90;;;;;;5041550;28;20032;-40
2022/12/26 02:41:05;;;;;;;15.35;12.85;;;10.40;99.90;;;;;;5041478;28;20630;-38
2022/12/26 02:43:59;;;;;;;14.38;12.00;;;10.40;99.90;;;;;;5041596;28;20036;-39
2022/12/26 03:13:09;;;;;;;17.38;14.43;;;10.40;99.90;;;;;;5026127;28;20123;-39
2022/12/26 03:15:12;;;;;;;17.05;14.00;;;10.30;99.90;;;;;;5043857;28;20051;-40
2022/12/26 03:17:49;;;;;;;16.48;14.15;;;10.30;99.90;;;;;;5044913;28;20100;-41
2022/12/26 03:20:18;;;;;;;15.35;13.25;;;10.30;99.90;;;;;;5045144;28;20044;-39
2022/12/26 03:22:48;;;;;;;16.23;14.25;;;10.30;99.90;;;;;;5044538;28;20784;-38
2022/12/26 03:28:08;;;;;;;15.95;14.25;;;10.20;99.90;;;;;;5042916;28;20036;-40
2022/12/26 03:30:49;;;;;;;17.42;14.65;;;10.10;99.90;;;;;;5044506;28;20029;-39
2022/12/26 03:36:19;;;;;;;15.30;13.25;;;10.10;99.90;;;;;;5024022;28;20089;-39
2022/12/26 04:19:22;;;;;;;16.42;14.63;;;10.10;99.90;;;;;;5041912;28;20134;-40
2022/12/26 04:44:34;;;;;;;22.42;19.67;;;10.30;99.90;;;;;;5043602;28;20043;-39
2022/12/26 04:47:00;;;;;;;20.48;18.27;;;10.30;99.90;;;;;;5042008;28;20027;-40
2022/12/26 04:52:13;;;;;;;18.90;16.88;;;10.30;99.90;;;;;;5032296;28;20032;-40
2022/12/26 04:54:39;;;;;;;18.52;16.45;;;10.30;99.90;;;;;;5043351;28;20021;-40
2022/12/26 04:57:06;;;;;;;19.52;17.52;;;10.30;99.90;;;;;;5042810;28;20021;-40
2022/12/26 04:59:34;;;;;;;18.83;16.83;;;10.30;99.90;;;;;;5042834;28;20458;-41
2022/12/26 05:10:19;;;;;;;17.27;15.35;;;10.30;99.90;;;;;;5040986;28;20052;-40
2022/12/26 05:12:45;;;;;;;16.92;15.25;;;10.30;99.90;;;;;;5042608;28;20055;-39
2022/12/26 05:15:11;;;;;;;17.02;15.32;;;10.20;99.90;;;;;;5042120;28;20029;-39
2022/12/26 05:29:18;;;;;;;12.32;11.15;;;10.00;99.90;;;;;;5037770;28;20719;-40
2022/12/26 05:31:43;;;;;;;12.57;11.27;;;9.90;99.90;;;;;;5040784;28;20033;-40
2022/12/26 05:34:11;;;;;;;11.65;10.55;;;9.90;99.90;;;;;;5040534;28;20049;-39
2022/12/26 05:36:46;;;;;;;11.88;10.75;;;9.90;99.90;;;;;;5042540;28;20028;-40
2022/12/26 05:39:12;;;;;;;11.43;10.23;;;9.90;99.90;;;;;;5041936;28;20072;-40
2022/12/26 05:41:39;;;;;;;10.60;9.57;;;9.90;99.90;;;;;;5041519;28;20120;-39
2022/12/26 05:44:05;;;;;;;9.73;8.73;;;9.80;99.90;;;;;;5041327;28;20059;-38
2022/12/26 05:46:30;;;;;;;9.90;9.00;;;9.80;99.90;;;;;;5041525;28;20035;-40
2022/12/26 05:48:56;;;;;;;9.38;8.48;;;9.80;99.90;;;;;;5041628;28;20044;-40
2022/12/26 05:51:22;;;;;;;8.68;7.55;;;9.70;99.90;;;;;;5041823;28;20499;-39
2022/12/26 05:53:47;;;;;;;7.47;6.78;;;9.80;99.90;;;;;;5041668;28;20783;-39
2022/12/26 05:56:15;;;;;;;8.75;7.55;;;9.70;99.90;;;;;;5040216;28;20040;-38
2022/12/26 05:58:41;;;;;;;8.35;7.55;;;9.70;99.90;;;;;;5042018;28;20342;-40
2022/12/26 06:01:17;;;;;;;8.10;7.22;;;9.70;99.90;;;;;;5041251;28;20472;-38
2022/12/26 06:03:46;;;;;;;7.88;7.07;;;9.70;99.90;;;;;;5040995;28;20025;-39
2022/12/26 06:06:12;;;;;;;7.07;6.40;;;9.70;99.90;;;;;;5041509;28;20021;-40
2022/12/26 06:08:38;;;;;;;6.72;6.13;;;9.70;99.90;;;;;;5041558;28;20065;-40
2022/12/26 06:11:06;;;;;;;6.07;5.32;;;9.70;99.90;;;;;;5040456;28;20025;-39
2022/12/26 06:13:32;;;;;;;6.00;5.10;;;9.60;99.90;;;;;;5041448;28;20100;-39
2022/12/26 06:15:58;;;;;;;5.95;5.35;;;9.60;99.90;;;;;;5042081;28;20013;-40
2022/12/26 06:18:24;;;;;;;5.57;5.07;;;9.60;99.90;;;;;;5040763;28;20048;-39
2022/12/26 06:20:50;;;;;;;5.75;5.25;;;9.60;99.90;;;;;;5041356;28;20021;-40
2022/12/26 06:23:15;;;;;;;5.85;5.13;;;9.60;99.90;;;;;;5041030;28;20025;-40
2022/12/26 06:25:41;;;;;;;5.43;4.93;;;9.60;99.90;;;;;;5041518;28;20071;-40
2022/12/26 06:28:06;;;;;;;4.90;4.43;;;9.50;99.90;;;;;;5041047;28;20735;-40
2022/12/26 06:30:32;;;;;;;5.43;4.85;;;9.50;99.90;;;;;;5040633;28;20099;-40
2022/12/26 06:32:58;;;;;;;4.88;4.47;;;9.50;99.90;;;;;;5040625;28;20037;-39
2022/12/26 06:35:23;;;;;;;5.05;4.55;;;9.50;99.90;;;;;;5041063;28;20032;-39
2022/12/26 06:37:49;;;;;;;5.38;4.10;;;9.40;99.90;;;;;;5041127;28;20025;-39
2022/12/26 06:40:14;;;;;;;4.88;4.47;;;9.40;99.90;;;;;;5041051;28;20464;-38
2022/12/26 06:42:40;;;;;;;5.32;4.28;;;9.40;99.90;;;;;;5041912;28;20059;-39
2022/12/26 06:45:06;;;;;;;4.72;4.32;;;9.50;99.90;;;;;;5039981;28;20033;-39
2022/12/26 06:47:31;;;;;;;5.07;4.57;;;9.50;99.90;;;;;;5041286;28;20064;-40
2022/12/26 06:49:57;;;;;;;6.93;4.75;;;9.40;99.90;;;;;;5040567;28;20107;-40
2022/12/26 06:52:22;;;;;;;6.07;5.35;;;9.40;99.90;;;;;;5040742;28;20747;-40
2022/12/26 06:54:48;;;;;;;5.25;4.75;;;9.50;99.90;;;;;;5041186;28;20407;-39
2022/12/26 06:57:13;;;;;;;4.80;4.40;;;9.50;99.90;;;;;;5040633;28;20752;-40
2022/12/26 06:59:39;;;;;;;4.60;4.20;;;9.50;99.90;;;;;;5040678;28;20215;-40
2022/12/26 07:02:05;;;;;;;4.60;4.20;;;9.60;99.90;;;;;;5040653;28;20124;-35
2022/12/26 07:04:30;;;;;;;5.28;4.78;;;9.60;99.90;;;;;;5040688;28;20025;-36
2022/12/26 07:06:56;;;;;;;5.70;5.10;;;9.60;99.90;;;;;;5040441;28;20539;-34
2022/12/26 07:09:21;;;;;;;7.15;5.80;;;9.70;99.90;;;;;;5040034;28;20032;-41
2022/12/26 07:11:49;;;;;;;5.28;4.78;;;9.70;99.90;;;;;;5030044;28;20102;-40
2022/12/26 07:14:15;;;;;;;6.68;5.68;;;9.60;99.90;;;;;;5040506;28;20028;-41
2022/12/26 07:16:43;;;;;;;6.10;5.50;;;9.60;99.90;;;;;;5041489;28;20108;-39
2022/12/26 07:19:11;;;;;;;6.47;5.80;;;9.60;99.90;;;;;;5040929;28;20039;-40
2022/12/26 07:21:37;;;;;;;6.22;5.63;;;9.60;99.90;;;;;;5040204;28;20040;-37
2022/12/26 07:24:02;;;;;;;5.93;5.43;;;9.60;99.90;;;;;;5041050;28;20033;-38
2022/12/26 07:26:28;;;;;;;5.72;5.13;;;9.60;99.90;;;;;;5040419;28;20036;-37
2022/12/26 07:28:57;;;;;;;6.28;5.40;;;9.60;99.90;;;;;;5041159;28;20052;-40
2022/12/26 07:31:24;;;;;;;6.90;6.13;;;9.60;99.90;;;;;;5040342;28;20031;-39
2022/12/26 07:33:52;;;;;;;6.70;6.10;;;9.60;99.90;;;;;;5022943;28;20045;-38
2022/12/26 07:36:18;;;;;;;6.07;5.47;;;9.50;99.90;;;;;;5038457;28;20123;-39
2022/12/26 07:38:44;;;;;;;7.03;6.03;;;9.50;99.90;;;;;;5044862;28;20036;-40
2022/12/26 07:43:55;;;;;;;7.28;6.57;;;9.50;99.90;;;;;;5044441;28;20047;-37
2022/12/26 07:46:20;;;;;;;6.50;5.72;;;9.40;99.90;;;;;;5044153;28;20021;-38
2022/12/26 07:48:46;;;;;;;8.50;6.22;;;9.40;99.90;;;;;;5043530;28;20071;-40
2022/12/26 07:51:12;;;;;;;8.93;6.07;;;9.40;99.90;;;;;;5043611;28;20072;-37
2022/12/26 07:53:38;;;;;;;6.97;5.63;;;9.40;99.90;;;;;;5044615;28;20045;-40
2022/12/26 07:56:04;;;;;;;6.35;5.68;;;9.30;99.90;;;;;;5042379;28;20445;-40
2022/12/26 07:58:29;;;;;;;7.13;6.22;;;9.30;99.90;;;;;;5043971;28;20033;-40
2022/12/26 08:00:55;;;;;;;6.30;5.70;;;9.30;99.90;;;;;;5043782;28;20044;-40
2022/12/26 08:03:20;;;;;;;6.68;5.57;;;9.30;99.90;;;;;;5042620;28;20603;-40
2022/12/26 08:05:50;;;;;;;5.85;5.25;;;9.30;99.90;;;;;;5044447;28;20140;-40
2022/12/26 08:08:16;;;;;;;5.38;4.88;;;9.40;99.90;;;;;;5039609;28;20033;-39
2022/12/26 08:10:42;;;;;;;5.50;5.00;;;9.40;99.90;;;;;;5042879;28;20571;-39
2022/12/26 08:13:08;;;;;;;6.30;5.15;;;9.40;99.90;;;;;;5043556;28;20098;-39
2022/12/26 08:15:36;;;;;;;5.55;4.97;;;9.40;99.90;;;;;;5044420;28;20025;-39
2022/12/26 08:18:02;;;;;;;6.47;4.80;;;9.50;99.90;;;;;;5042712;28;20040;-39
2022/12/26 08:20:28;;;;;;;5.97;4.78;;;9.60;99.90;;;;;;5044191;28;20033;-39
2022/12/26 08:22:53;;;;;;;5.35;4.70;;;9.60;99.90;;;;;;5042917;28;20112;-37
2022/12/26 08:25:19;;;;;;;4.85;4.35;;;9.60;99.90;;;;;;5043450;28;20025;-39
2022/12/26 08:27:44;;;;;;;5.32;4.50;;;9.70;99.90;;;;;;5043430;28;20033;-40
2022/12/26 08:30:10;;;;;;;5.50;4.60;;;9.80;99.90;;;;;;5042130;28;20072;-39
2022/12/26 08:32:36;;;;;;;3.72;3.38;;;9.80;99.90;;;;;;5043503;28;20025;-37
2022/12/26 08:35:02;;;;;;;4.38;3.80;;;9.90;99.90;;;;;;5043611;28;20039;-39
2022/12/26 08:37:28;;;;;;;5.38;4.10;;;10.00;99.90;;;;;;5043948;28;20140;-40
2022/12/26 08:39:53;;;;;;;4.88;3.63;;;10.00;99.90;;;;;;5044095;28;20781;-39
2022/12/26 08:42:22;;;;;;;5.57;3.25;;;10.00;99.90;;;;;;5043291;28;20532;-40
2022/12/26 08:44:48;;;;;;;4.43;3.15;;;10.10;99.90;;;;;;5043147;28;20033;-40
2022/12/26 08:47:14;;;;;;;4.10;2.75;;;10.10;99.90;;;;;;5043066;28;20028;-40
2022/12/26 08:49:40;;;;;;;3.95;2.95;;;10.10;99.90;;;;;;5043860;28;20032;-39
2022/12/26 08:52:06;;;;;;;5.15;3.28;;;10.10;99.90;;;;;;5041986;28;20376;-41
2022/12/26 08:54:31;;;;;;;3.83;3.00;;;10.10;99.90;;;;;;5052283;28;20021;-40
2022/12/26 08:56:57;;;;;;;3.55;2.83;;;10.20;99.90;;;;;;5042852;28;20040;-39
2022/12/26 08:59:22;;;;;;;2.80;2.58;;;10.20;99.90;;;;;;5041536;28;20449;-39
2022/12/26 09:01:51;;;;;;;4.00;2.60;;;10.30;99.90;;;;;;5043482;28;20372;-39
2022/12/26 09:04:23;;;;;;;2.88;2.58;;;10.30;99.90;;;;;;5042553;28;20107;-39
2022/12/26 09:06:48;;;;;;;3.70;2.53;;;10.40;99.90;;;;;;5042345;28;20029;-40
2022/12/26 09:09:14;;;;;;;3.65;2.50;;;10.40;99.90;;;;;;5042674;28;20392;-39
2022/12/26 09:11:40;;;;;;;4.35;2.53;;;10.40;99.90;;;;;;5041083;28;20025;-39
2022/12/26 09:14:07;;;;;;;4.15;2.30;;;10.40;99.90;;;;;;5040059;28;20024;-40
2022/12/26 09:16:41;;;;;;;3.17;2.30;;;10.40;99.90;;;;;;5041736;28;20036;-41
2022/12/26 09:19:11;;;;;;;3.85;2.10;;;10.40;99.90;;;;;;5040826;28;20060;-39
2022/12/26 09:21:37;;;;;;;3.25;2.00;;;10.50;99.90;;;;;;5041813;28;20040;-39
2022/12/26 09:24:05;;;;;;;3.33;2.35;;;10.50;99.90;;;;;;5041808;28;20434;-39
2022/12/26 09:26:31;;;;;;;3.25;2.28;;;10.50;99.90;;;;;;5040814;28;20017;-39
2022/12/26 09:28:57;;;;;;;2.92;2.28;;;10.50;99.90;;;;;;5041399;28;20121;-39
2022/12/26 09:31:25;;;;;;;3.75;2.25;;;10.60;99.90;;;;;;5041122;28;20021;-39
2022/12/26 09:33:54;;;;;;;4.93;2.38;;;10.60;99.90;;;;;;5040891;28;20053;-40
2022/12/26 09:36:23;;;;;;;5.78;2.22;;;10.60;99.90;;;;;;5042039;28;20036;-36
2022/12/26 09:38:50;;;;;;;2.65;1.80;;;10.70;99.90;;;;;;5041569;28;20028;-37
2022/12/26 09:41:24;;;;;;;3.65;1.73;;;10.70;99.90;;;;;;5040949;28;20104;-39
2022/12/26 09:43:53;;;;;;;7.10;2.25;;;10.70;99.90;;;;;;5042581;28;20028;-39
2022/12/26 09:46:56;;;;;;;3.22;1.95;;;10.70;99.90;;;;;;5041799;28;20028;-38
2022/12/26 09:49:29;;;;;;;3.35;1.90;;;10.70;99.90;;;;;;5041082;28;20104;-40
2022/12/26 09:51:57;;;;;;;3.78;1.90;;;10.70;99.90;;;;;;5040419;28;20025;-40
2022/12/26 09:54:41;;;;;;;3.22;1.85;;;10.60;99.90;;;;;;5040263;28;20059;-41
2022/12/26 09:57:13;;;;;;;3.20;1.70;;;10.60;99.90;;;;;;5039771;28;20032;-39
2022/12/26 09:59:53;;;;;;;4.72;2.05;;;10.60;99.90;;;;;;5041650;28;20072;-40
2022/12/26 10:02:22;;;;;;;3.08;1.90;;;10.50;99.90;;;;;;5040741;28;20024;-41
2022/12/26 10:04:48;;;;;;;4.63;2.28;;;10.50;99.90;;;;;;5042138;28;20064;-39
2022/12/26 10:07:31;;;;;;;4.15;2.20;;;10.50;99.90;;;;;;5041626;28;20071;-40
2022/12/26 10:10:21;;;;;;;4.10;1.95;;;10.50;99.90;;;;;;5041181;28;20072;-38
2022/12/26 10:13:07;;;;;;;4.70;1.95;;;10.40;99.90;;;;;;5041503;28;20025;-40
2022/12/26 10:15:45;;;;;;;4.82;2.08;;;10.30;99.90;;;;;;5040624;28;20076;-40
2022/12/26 10:18:32;;;;;;;5.28;1.95;;;10.20;99.90;;;;;;5032536;28;20037;-40
2022/12/26 10:21:21;;;;;;;3.33;1.70;;;10.10;99.90;;;;;;5041177;28;20481;-40
2022/12/26 10:23:56;;;;;;;3.22;1.77;;;10.10;99.90;;;;;;5034209;28;20028;-38
2022/12/26 10:26:28;;;;;;;5.80;2.10;;;10.10;99.90;;;;;;5040870;28;20020;-39
2022/12/26 10:29:08;;;;;;;3.70;1.53;;;10.10;99.90;;;;;;5041424;28;20041;-39
2022/12/26 10:31:45;;;;;;;3.92;1.80;;;10.10;99.90;;;;;;5040724;28;20282;-39
2022/12/26 10:34:38;;;;;;;3.75;1.70;;;10.10;99.90;;;;;;5040566;28;20947;-38
2022/12/26 10:37:22;;;;;;;4.82;1.42;;;10.10;99.90;;;;;;5039157;28;20017;-40
2022/12/26 10:39:53;;;;;;;3.95;1.90;;;10.10;99.90;;;;;;5041130;28;20116;-37
2022/12/26 10:42:40;;;;;;;6.55;2.17;;;10.10;99.90;;;;;;5040463;28;20047;-39
2022/12/26 10:45:16;;;;;;;3.70;1.65;;;10.10;99.90;;;;;;5039707;28;20051;-39
2022/12/26 10:47:45;;;;;;;4.63;1.85;;;10.10;99.90;;;;;;5040578;28;20052;-35
2022/12/26 10:50:16;;;;;;;3.13;1.50;;;10.10;99.90;;;;;;5040089;28;20044;-39
2022/12/26 10:52:42;;;;;;;7.35;1.98;;;10.10;99.90;;;;;;5040155;28;20048;-40
2022/12/26 10:55:13;;;;;;;5.55;1.90;;;10.10;99.90;;;;;;5041071;28;20033;-40
2022/12/26 10:57:41;;;;;;;9.90;2.40;;;10.10;99.90;;;;;;5040347;28;20025;-37
2022/12/26 11:00:27;;;;;;;10.10;2.17;;;10.10;99.90;;;;;;5040592;28;20029;-39
2022/12/26 11:03:11;;;;;;;7.82;1.70;;;10.00;99.90;;;;;;5041377;28;20167;-40
2022/12/26 11:05:45;;;;;;;11.35;1.75;;;9.90;99.90;;;;;;5041001;28;20127;-37
2022/12/26 11:08:32;;;;;;;5.97;1.60;;;9.80;99.90;;;;;;5042605;28;20056;-37
2022/12/26 11:11:03;;;;;;;8.02;2.22;;;9.70;99.90;;;;;;5044976;28;20041;-39
2022/12/26 11:13:36;;;;;;;8.57;1.90;;;9.60;99.90;;;;;;5044044;28;20226;-38
2022/12/26 11:16:01;;;;;;;8.32;1.80;;;9.40;99.90;;;;;;5041680;28;20025;-39
2022/12/26 11:18:37;;;;;;;4.78;1.45;;;9.30;99.90;;;;;;5045119;28;20101;-39
2022/12/26 11:21:18;;;;;;;6.55;1.60;;;9.30;99.90;;;;;;5043772;28;20029;-39
2022/12/26 11:23:48;;;;;;;9.75;1.40;;;9.30;99.90;;;;;;5045237;28;20033;-39
2022/12/26 11:26:22;;;;;;;8.98;1.90;;;9.20;99.90;;;;;;5043648;28;20392;-40
2022/12/26 11:29:11;;;;;;;9.02;1.90;;;9.20;99.90;;;;;;5044393;28;20106;-39
2022/12/26 11:31:38;;;;;;;8.73;1.92;;;9.10;99.90;;;;;;5044200;28;20040;-40
2022/12/26 11:34:10;;;;;;;5.57;1.52;;;9.10;99.90;;;;;;5043290;28;20131;-39
2022/12/26 11:36:39;;;;;;;8.02;1.70;;;9.10;99.90;;;;;;5044570;28;20044;-39
2022/12/26 11:39:15;;;;;;;6.50;1.67;;;9.10;99.90;;;;;;5042559;28;20063;-39
2022/12/26 11:41:42;;;;;;;8.88;2.78;;;9.20;99.90;;;;;;5044470;28;20088;-39
2022/12/26 11:44:08;;;;;;;6.53;1.75;;;9.10;99.90;;;;;;5043783;28;20024;-38
2022/12/26 11:47:07;;;;;;;7.32;2.00;;;9.00;99.90;;;;;;5044545;28;20033;-38
2022/12/26 11:49:40;;;;;;;7.32;2.08;;;9.00;99.90;;;;;;5043929;28;20079;-38
2022/12/26 11:52:34;;;;;;;7.57;2.42;;;9.00;99.90;;;;;;5043735;28;20416;-36
2022/12/26 11:54:59;;;;;;;7.45;1.77;;;9.00;99.90;;;;;;5042035;28;20033;-39
2022/12/26 11:57:30;;;;;;;6.57;1.33;;;9.00;99.90;;;;;;5044316;28;20028;-38
2022/12/26 12:00:18;;;;;;;8.02;1.50;;;9.00;99.90;;;;;;5037527;28;20070;-38
2022/12/26 12:02:44;;;;;;;7.60;2.08;;;9.00;99.90;;;;;;5043193;28;20033;-38
2022/12/26 12:05:38;;;;;;;6.05;1.27;;;8.90;99.90;;;;;;5039331;28;20052;-37
2022/12/26 12:08:29;;;;;;;6.72;1.60;;;8.90;99.90;;;;;;5021251;28;20043;-40
2022/12/26 12:11:33;;;;;;;5.40;1.45;;;8.90;99.90;;;;;;5038326;28;20044;-36
2022/12/26 12:14:33;;;;;;;3.85;1.35;;;8.80;99.90;;;;;;5044039;28;20017;-37
2022/12/26 12:17:02;;;;;;;5.03;1.20;;;8.80;99.90;;;;;;5041321;28;20025;-39
2022/12/26 12:19:34;;;;;;;5.43;1.25;;;8.70;99.90;;;;;;5043829;28;20124;-35
2022/12/26 12:22:19;;;;;;;;;;;8.70;99.90;;;;;;5042961;28;20114;-37
2022/12/26 12:25:18;;;;;;;7.13;1.20;;;8.60;99.90;;;;;;5043826;28;19916;-40
2022/12/26 12:28:23;;;;;;;5.60;1.35;;;8.60;99.90;;;;;;5032956;28;20029;-37
2022/12/26 12:31:08;;;;;;;3.50;0.95;;;8.50;99.90;;;;;;5039599;28;20056;-38
2022/12/26 12:33:41;;;;;;;3.72;1.10;;;8.50;99.90;;;;;;5044144;28;20051;-40
2022/12/26 12:36:34;;;;;;;5.88;0.93;;;8.40;99.90;;;;;;5043116;28;20083;-40
2022/12/26 12:39:18;;;;;;;4.05;1.33;;;8.40;99.90;;;;;;5043362;28;20032;-40
2022/12/26 12:42:22;;;;;;;2.60;0.88;;;8.40;99.90;;;;;;5043163;28;20078;-40
2022/12/26 12:45:02;;;;;;;4.75;1.23;;;8.40;99.90;;;;;;5022884;28;20124;-40
2022/12/26 12:47:38;;;;;;;3.72;1.20;;;8.40;99.90;;;;;;5040887;28;20036;-40
2022/12/26 12:50:20;;;;;;;4.15;1.30;;;8.40;99.90;;;;;;5041916;28;20040;-39
2022/12/26 12:53:08;;;;;;;5.78;1.20;;;8.40;99.90;;;;;;5042892;28;20059;-41
2022/12/26 12:55:39;;;;;;;7.47;1.60;;;8.40;99.90;;;;;;5043607;28;20033;-40
2022/12/26 12:58:23;;;;;;;2.88;0.95;;;8.40;99.90;;;;;;5041515;28;20028;-40
2022/12/26 13:00:58;;;;;;;2.70;1.25;;;8.40;99.90;;;;;;5041348;28;20025;-39
2022/12/26 13:03:31;;;;;;;3.42;0.95;;;8.50;99.90;;;;;;5040884;28;20503;-37
2022/12/26 13:06:21;;;;;;;6.15;1.15;;;8.50;99.90;;;;;;5040731;28;20143;-40
2022/12/26 13:09:11;;;;;;;4.55;1.20;;;8.50;99.90;;;;;;5042032;28;20028;-40
2022/12/26 13:11:47;;;;;;;3.45;1.08;;;8.50;99.90;;;;;;5041202;28;20068;-41
2022/12/26 13:14:23;;;;;;;3.28;1.00;;;8.40;99.90;;;;;;5041619;28;20033;-41
2022/12/26 13:16:59;;;;;;;3.67;1.00;;;8.40;99.90;;;;;;5042209;28;20340;-41
2022/12/26 13:19:37;;;;;;;4.80;1.00;;;8.40;99.90;;;;;;5041226;28;20033;-41
2022/12/26 13:22:09;;;;;;;4.05;1.10;;;8.30;99.90;;;;;;5041476;28;20033;-39
2022/12/26 13:24:40;;;;;;;5.35;1.00;;;8.30;99.90;;;;;;5041318;28;20747;-40
2022/12/26 13:27:19;;;;;;;3.53;1.20;;;8.30;99.90;;;;;;5039947;28;20484;-42
2022/12/26 13:29:46;;;;;;;4.93;1.45;;;8.20;99.90;;;;;;5041177;28;20087;-39
2022/12/26 13:32:32;;;;;;;4.78;1.02;;;8.20;99.90;;;;;;5039464;28;20017;-39
2022/12/26 13:35:00;;;;;;;3.33;1.02;;;8.20;99.90;;;;;;5030761;28;20037;-38
2022/12/26 13:37:37;;;;;;;3.65;0.80;;;8.20;99.90;;;;;;5041016;28;20032;-39
2022/12/26 13:40:16;;;;;;;2.22;1.05;;;8.20;99.90;;;;;;5039468;28;20071;-41
2022/12/26 13:45:50;;;;;;;3.53;0.90;;;8.20;99.90;;;;;;5034905;28;20044;-40
2022/12/26 13:48:15;;;;;;;4.78;1.40;;;8.20;99.90;;;;;;5040215;28;20036;-41
2022/12/26 13:50:49;;;;;;;4.40;1.35;;;8.10;99.90;;;;;;5040532;28;20041;-40
2022/12/26 13:53:24;;;;;;;4.38;1.85;;;8.10;99.90;;;;;;5040149;28;20049;-40
2022/12/26 13:56:17;;;;;;;3.10;1.02;;;8.10;99.90;;;;;;5040956;28;20029;-40
2022/12/26 13:59:11;;;;;;;2.20;1.00;;;8.10;99.90;;;;;;5040837;28;20044;-41
2022/12/26 14:01:53;;;;;;;5.90;1.20;;;8.00;99.90;;;;;;5039581;28;20504;-40
2022/12/26 14:04:50;;;;;;;8.35;1.42;;;8.00;99.90;;;;;;5041343;28;20083;-41
2022/12/26 14:07:42;;;;;;;5.53;1.20;;;8.00;99.90;;;;;;5041313;28;20021;-41
2022/12/26 14:10:26;;;;;;;2.58;1.13;;;7.90;99.90;;;;;;5040823;28;20151;-40
2022/12/26 14:13:00;;;;;;;5.43;1.20;;;7.90;99.90;;;;;;5041096;28;20485;-39
2022/12/26 14:15:44;;;;;;;2.45;1.20;;;7.80;99.90;;;;;;5040044;28;20033;-39
2022/12/26 14:18:17;;;;;;;2.78;1.05;;;7.80;99.90;;;;;;5041270;28;20037;-40
2022/12/26 14:20:56;;;;;;;4.13;1.65;;;7.70;99.90;;;;;;5041900;28;20060;-39
2022/12/26 14:23:57;;;;;;;5.10;1.15;;;7.70;99.90;;;;;;5041357;28;20029;-41
2022/12/26 14:26:33;;;;;;;6.13;1.40;;;7.70;99.90;;;;;;5041769;28;20055;-41
2022/12/26 14:29:20;;;;;;;3.53;1.42;;;7.60;99.90;;;;;;5040475;28;20033;-38
2022/12/26 14:31:46;;;;;;;3.25;1.20;;;7.60;99.90;;;;;;5039560;28;20043;-41
2022/12/26 14:34:32;;;;;;;4.25;1.42;;;7.50;99.90;;;;;;5039303;28;20049;-39
2022/12/26 14:36:57;;;;;;;2.45;1.50;;;7.50;99.90;;;;;;5039649;28;20039;-41
2022/12/26 14:39:57;;;;;;;5.60;2.00;;;7.50;99.90;;;;;;5040133;28;20579;-40
2022/12/26 14:45:28;;;;;;;4.38;1.88;;;7.40;99.90;;;;;;5045207;28;20083;-40
2022/12/26 14:47:54;;;;;;;3.85;1.60;;;7.40;99.90;;;;;;5041727;28;20424;-40
2022/12/26 14:50:35;;;;;;;5.18;1.65;;;7.40;99.90;;;;;;5044120;28;20521;-40
2022/12/26 14:53:23;;;;;;;4.47;1.40;;;7.40;99.90;;;;;;5044939;28;20025;-40
2022/12/26 14:55:52;;;;;;;3.15;1.20;;;7.40;99.90;;;;;;5045728;28;20167;-40
2022/12/26 14:58:39;;;;;;;4.15;1.40;;;7.40;99.90;;;;;;5044568;28;20112;-36
2022/12/26 15:01:08;;;;;;;6.97;1.95;;;7.30;99.90;;;;;;5045385;28;20108;-39
2022/12/26 15:04:02;;;;;;;11.73;1.70;;;7.30;99.90;;;;;;5045258;28;20031;-40
2022/12/26 15:07:05;;;;;;;4.60;1.52;;;7.30;99.90;;;;;;5045671;28;20128;-41
2022/12/26 15:10:02;;;;;;;2.63;1.40;;;7.30;99.90;;;;;;5025813;28;20045;-41
2022/12/26 15:12:48;;;;;;;3.42;1.20;;;7.30;99.90;;;;;;5042739;28;20158;-39
2022/12/26 15:15:46;;;;;;;5.90;1.88;;;7.20;99.90;;;;;;5045064;28;20041;-43
2022/12/26 15:18:44;;;;;;;4.60;1.70;;;7.30;99.90;;;;;;5043628;28;20136;-36
2022/12/26 15:21:42;;;;;;;3.42;1.40;;;7.30;99.90;;;;;;5044803;28;20032;-36
2022/12/26 15:24:45;;;;;;;7.53;1.63;;;7.30;99.90;;;;;;5045439;28;20048;-40
2022/12/26 15:27:28;;;;;;;6.80;1.48;;;7.20;99.90;;;;;;5045060;28;20821;-39
2022/12/26 15:30:54;;;;;;;5.63;1.63;;;7.20;99.90;;;;;;5045290;28;20124;-39